createdAt,value
2023-05-20T00:00:41.600Z,63.93
2023-05-20T00:02:16.072Z,64.40
2023-05-20T00:03:49.262Z,62.41
2023-05-20T00:05:24.701Z,60.41
2023-05-20T00:07:05.283Z,58.64
2023-05-20T00:08:26.920Z,57.88
2023-05-20T00:10:00.837Z,59.29
2023-05-20T00:11:53.889Z,61.39
2023-05-20T00:13:47.682Z,64.23
2023-05-20T00:15:12.460Z,64.40
2023-05-20T00:16:56.047Z,62.55
2023-05-20T00:18:18.033Z,60.19
2023-05-20T00:19:53.712Z,58.18
2023-05-20T00:21:29.952Z,57.78
2023-05-20T00:23:15.245Z,59.33
2023-05-20T00:24:55.756Z,61.53
2023-05-20T00:26:42.731Z,63.79
2023-05-20T00:28:28.070Z,64.06
2023-05-20T00:30:04.230Z,61.91
2023-05-20T00:31:49.475Z,59.69
2023-05-20T00:33:19.304Z,57.78
2023-05-20T00:34:55.041Z,58.21
2023-05-20T00:36:46.465Z,60.05
2023-05-20T00:38:31.673Z,62.28
2023-05-20T00:40:06.198Z,64.47
2023-05-20T00:41:50.826Z,63.82
2023-05-20T00:43:27.199Z,61.39
2023-05-20T00:45:03.188Z,59.42
2023-05-20T00:46:48.393Z,57.76
2023-05-20T00:48:13.510Z,58.54
2023-05-20T00:49:59.391Z,60.45
2023-05-20T00:51:46.129Z,62.81
2023-05-20T00:53:35.693Z,64.70
2023-05-20T00:55:16.883Z,63.16
2023-05-20T00:56:53.084Z,60.96
2023-05-20T00:58:38.197Z,58.91
2023-05-20T01:00:23.786Z,57.75
2023-05-20T01:01:59.555Z,59.28
2023-05-20T01:03:33.379Z,61.25
2023-05-20T01:05:14.570Z,63.24
2023-05-20T01:06:55.255Z,64.44
2023-05-20T01:08:28.992Z,62.52
2023-05-20T01:10:03.224Z,60.52
2023-05-20T01:11:48.245Z,58.08
2023-05-20T01:13:22.297Z,57.83
2023-05-20T01:14:44.690Z,59.27
2023-05-20T01:16:14.023Z,60.90
2023-05-20T01:17:46.135Z,62.86
2023-05-20T01:19:10.710Z,64.71
2023-05-20T01:20:44.038Z,63.88
2023-05-20T01:22:20.886Z,61.85
2023-05-20T01:24:06.097Z,59.55
2023-05-20T01:25:29.844Z,57.72
2023-05-20T01:26:59.054Z,58.26
2023-05-20T01:28:33.301Z,59.78
2023-05-20T01:29:58.181Z,61.83
2023-05-20T01:31:42.068Z,64.04
2023-05-20T01:33:07.103Z,64.68
2023-05-20T01:34:52.133Z,62.94
2023-05-20T01:36:38.014Z,60.60
2023-05-20T01:38:09.433Z,58.73
2023-05-20T01:39:47.002Z,57.80
2023-05-20T01:41:20.795Z,59.29
2023-05-20T01:43:05.924Z,61.27
2023-05-20T01:44:47.010Z,63.64
2023-05-20T01:46:18.748Z,64.69
2023-05-20T01:47:50.851Z,63.18
2023-05-20T01:49:22.837Z,61.04
2023-05-20T01:50:56.238Z,59.14
2023-05-20T01:52:32.132Z,57.75
2023-05-20T01:54:07.851Z,58.66
2023-05-20T01:55:41.541Z,60.79
2023-05-20T01:57:22.505Z,62.95
2023-05-20T01:58:53.298Z,64.86
2023-05-20T02:00:48.012Z,63.69
2023-05-20T02:02:24.697Z,61.18
2023-05-20T02:03:46.916Z,59.24
2023-05-20T02:05:08.955Z,57.82
2023-05-20T02:06:30.638Z,58.25
2023-05-20T02:08:16.090Z,60.06
2023-05-20T02:09:46.114Z,62.02
2023-05-20T02:11:22.035Z,64.23
2023-05-20T02:12:47.829Z,64.54
2023-05-20T02:14:19.155Z,62.64
2023-05-20T02:15:51.934Z,60.52
2023-05-20T02:17:37.420Z,58.13
2023-05-20T02:19:24.708Z,57.80
2023-05-20T02:21:10.242Z,59.81
2023-05-20T02:22:43.714Z,61.94
2023-05-20T02:24:29.322Z,63.86
2023-05-20T02:26:05.144Z,63.69
2023-05-20T02:27:38.597Z,61.79
2023-05-20T02:29:23.984Z,59.55
2023-05-20T02:30:52.835Z,57.64
2023-05-20T02:32:28.933Z,58.08
2023-05-20T02:34:15.961Z,59.80
2023-05-20T02:36:03.316Z,62.17
2023-05-20T02:37:48.084Z,64.44
2023-05-20T02:39:33.222Z,63.40
2023-05-20T02:41:11.998Z,61.04
2023-05-20T02:42:52.805Z,58.60
2023-05-20T02:44:24.568Z,57.41
2023-05-20T02:46:10.131Z,58.80
2023-05-20T02:47:39.752Z,60.51
2023-05-20T02:49:04.285Z,62.23
2023-05-20T02:50:40.133Z,64.19
2023-05-20T02:52:25.401Z,63.63
2023-05-20T02:54:19.223Z,61.17
2023-05-20T02:55:52.140Z,58.72
2023-05-20T02:57:25.727Z,57.20
2023-05-20T02:59:06.854Z,58.37
2023-05-20T03:00:31.291Z,60.05
2023-05-20T03:01:57.566Z,61.66
2023-05-20T03:03:41.567Z,63.40
2023-05-20T03:05:13.670Z,64.17
2023-05-20T03:06:58.927Z,61.96
2023-05-20T03:08:34.691Z,59.55
2023-05-20T03:10:10.360Z,57.45
2023-05-20T03:11:52.148Z,57.73
2023-05-20T03:13:16.712Z,59.41
2023-05-20T03:14:55.324Z,61.26
2023-05-20T03:16:37.489Z,62.99
2023-05-20T03:18:31.954Z,64.38
2023-05-20T03:20:17.148Z,62.19
2023-05-20T03:21:53.085Z,59.75
2023-05-20T03:23:35.437Z,57.61
2023-05-20T03:25:09.134Z,57.43
2023-05-20T03:26:43.040Z,58.84
2023-05-20T03:28:32.979Z,60.84
2023-05-20T03:30:18.493Z,63.23
2023-05-20T03:32:05.090Z,64.45
2023-05-20T03:33:50.149Z,62.64
2023-05-20T03:35:26.122Z,60.20
2023-05-20T03:37:02.006Z,58.15
2023-05-20T03:38:36.070Z,57.31
2023-05-20T03:40:24.584Z,59.15
2023-05-20T03:41:49.112Z,61.25
2023-05-20T03:43:34.495Z,63.19
2023-05-20T03:45:20.015Z,64.12
2023-05-20T03:47:08.519Z,61.43
2023-05-20T03:48:53.265Z,59.28
2023-05-20T03:50:26.909Z,57.32
2023-05-20T03:51:56.223Z,57.98
2023-05-20T03:53:29.802Z,60.01
2023-05-20T03:55:10.855Z,61.71
2023-05-20T03:56:55.266Z,63.62
2023-05-20T03:58:51.530Z,63.86
2023-05-20T04:00:27.810Z,61.28
2023-05-20T04:02:01.644Z,59.33
2023-05-20T04:03:54.902Z,57.50
2023-05-20T04:05:49.020Z,58.84
2023-05-20T04:07:25.931Z,61.34
2023-05-20T04:09:00.165Z,62.99
2023-05-20T04:10:36.078Z,64.44
2023-05-20T04:12:09.691Z,62.48
2023-05-20T04:13:46.138Z,60.13
2023-05-20T04:15:20.121Z,57.65
2023-05-20T04:17:02.113Z,57.82
2023-05-20T04:18:39.084Z,59.52
2023-05-20T04:20:16.553Z,61.31
2023-05-20T04:21:49.535Z,63.53
2023-05-20T04:23:35.638Z,64.69
2023-05-20T04:25:15.498Z,63.09
2023-05-20T04:26:51.559Z,60.52
2023-05-20T04:28:28.130Z,58.38
2023-05-20T04:30:02.444Z,57.77
2023-05-20T04:31:38.572Z,59.13
2023-05-20T04:33:24.157Z,60.97
2023-05-20T04:35:09.048Z,62.79
2023-05-20T04:36:53.336Z,64.65
2023-05-20T04:38:16.404Z,63.23
2023-05-20T04:40:09.688Z,61.01
2023-05-20T04:41:54.690Z,58.42
2023-05-20T04:43:45.750Z,57.60
2023-05-20T04:45:26.435Z,59.40
2023-05-20T04:46:59.809Z,61.31
2023-05-20T04:48:33.727Z,63.41
2023-05-20T04:50:14.741Z,64.23
2023-05-20T04:51:55.694Z,61.93
2023-05-20T04:53:20.110Z,59.80
2023-05-20T04:55:00.791Z,57.54
2023-05-20T04:56:34.150Z,57.68
2023-05-20T04:58:20.103Z,59.07
2023-05-20T05:00:05.806Z,60.89
2023-05-20T05:01:42.539Z,62.91
2023-05-20T05:03:07.562Z,64.46
2023-05-20T05:04:52.422Z,63.23
2023-05-20T05:06:37.787Z,60.50
2023-05-20T05:08:01.987Z,58.33
2023-05-20T05:09:37.915Z,57.41
2023-05-20T05:11:11.246Z,58.59
2023-05-20T05:12:44.584Z,60.11
2023-05-20T05:14:29.855Z,61.83
2023-05-20T05:15:56.084Z,64.13
2023-05-20T05:17:32.973Z,63.81
2023-05-20T05:19:09.433Z,61.21
2023-05-20T05:20:51.303Z,58.61
2023-05-20T05:22:37.126Z,57.65
2023-05-20T05:24:18.041Z,59.20
2023-05-20T05:26:11.029Z,61.26
2023-05-20T05:27:52.965Z,63.08
2023-05-20T05:29:27.393Z,63.67
2023-05-20T05:31:21.399Z,61.75
2023-05-20T05:32:56.896Z,59.54
2023-05-20T05:34:21.609Z,57.25
2023-05-20T05:36:13.485Z,57.24
2023-05-20T05:37:58.377Z,59.13
2023-05-20T05:39:25.081Z,60.86
2023-05-20T05:41:00.276Z,62.75
2023-05-20T05:42:22.503Z,64.66
2023-05-20T05:43:44.664Z,63.57
2023-05-20T05:45:30.834Z,60.64
2023-05-20T05:47:15.213Z,58.39
2023-05-20T05:48:51.056Z,56.96
2023-05-20T05:50:28.499Z,58.16
2023-05-20T05:52:02.763Z,59.55
2023-05-20T05:53:47.580Z,61.37
2023-05-20T05:55:28.920Z,63.78
2023-05-20T05:57:09.913Z,63.75
2023-05-20T05:58:51.300Z,61.14
2023-05-20T06:00:33.032Z,58.52
2023-05-20T06:02:18.376Z,57.05
2023-05-20T06:04:13.001Z,58.02
2023-05-20T06:05:48.717Z,60.35
2023-05-20T06:07:20.440Z,61.87
2023-05-20T06:08:56.459Z,63.70
2023-05-20T06:10:25.605Z,63.75
2023-05-20T06:12:16.448Z,61.00
2023-05-20T06:14:01.621Z,57.99
2023-05-20T06:15:46.610Z,56.94
2023-05-20T06:17:22.475Z,57.94
2023-05-20T06:18:55.857Z,59.12
2023-05-20T06:20:29.334Z,60.32
2023-05-20T06:22:10.501Z,62.38
2023-05-20T06:23:38.356Z,63.85
2023-05-20T06:25:14.998Z,62.72
2023-05-20T06:27:01.326Z,60.04
2023-05-20T06:28:26.089Z,57.48
2023-05-20T06:29:59.671Z,57.09
2023-05-20T06:31:48.298Z,58.15
2023-05-20T06:33:29.859Z,59.47
2023-05-20T06:35:18.293Z,60.56
2023-05-20T06:36:47.876Z,62.02
2023-05-20T06:38:09.984Z,62.76
2023-05-20T06:39:54.538Z,64.48
2023-05-20T06:41:39.796Z,61.70
2023-05-20T06:43:13.824Z,58.99
2023-05-20T06:44:54.890Z,56.98
2023-05-20T06:46:39.770Z,57.74
2023-05-20T06:48:29.212Z,58.33
2023-05-20T06:50:14.982Z,60.57
2023-05-20T06:51:44.131Z,61.90
2023-05-20T06:53:08.720Z,62.58
2023-05-20T06:54:42.721Z,63.80
2023-05-20T06:56:08.526Z,61.76
2023-05-20T06:57:42.005Z,59.27
2023-05-20T06:59:15.332Z,57.06
2023-05-20T07:00:37.873Z,56.72
2023-05-20T07:02:02.119Z,57.18
2023-05-20T07:03:55.821Z,58.66
2023-05-20T07:05:31.733Z,60.34
2023-05-20T07:07:12.470Z,60.87
2023-05-20T07:08:36.709Z,61.70
2023-05-20T07:10:10.755Z,62.76
2023-05-20T07:11:55.759Z,64.02
2023-05-20T07:13:31.842Z,61.39
2023-05-20T07:14:55.876Z,58.72
2023-05-20T07:16:32.396Z,56.44
2023-05-20T07:17:59.135Z,56.65
2023-05-20T07:19:43.109Z,57.61
2023-05-20T07:21:19.297Z,58.89
2023-05-20T07:23:15.665Z,60.42
2023-05-20T07:24:59.550Z,61.16
2023-05-20T07:26:36.110Z,63.18
2023-05-20T07:28:00.485Z,63.60
2023-05-20T07:29:24.473Z,61.52
2023-05-20T07:31:10.395Z,58.39
2023-05-20T07:33:00.776Z,55.96
2023-05-20T07:34:45.690Z,57.36
2023-05-20T07:36:26.976Z,58.81
2023-05-20T07:37:54.361Z,60.12
2023-05-20T07:39:27.805Z,61.67
2023-05-20T07:41:08.590Z,62.72
2023-05-20T07:42:41.767Z,62.91
2023-05-20T07:44:12.565Z,61.45
2023-05-20T07:45:49.142Z,58.58
2023-05-20T07:47:23.292Z,56.97
2023-05-20T07:48:49.750Z,57.23
2023-05-20T07:50:23.870Z,57.73
2023-05-20T07:51:49.174Z,59.29
2023-05-20T07:53:23.082Z,59.67
2023-05-20T07:54:56.837Z,60.21
2023-05-20T07:56:30.433Z,60.92
2023-05-20T07:58:03.866Z,62.50
2023-05-20T07:59:39.090Z,62.61
2023-05-20T08:01:24.642Z,60.73
2023-05-20T08:02:58.004Z,58.47
2023-05-20T08:04:40.342Z,55.97
2023-05-20T08:06:14.150Z,56.31
2023-05-20T08:07:47.404Z,57.58
2023-05-20T08:09:21.727Z,59.49
2023-05-20T08:11:09.443Z,60.39
2023-05-20T08:12:32.061Z,61.88
2023-05-20T08:14:17.325Z,62.55
2023-05-20T08:15:56.982Z,60.18
2023-05-20T08:17:30.390Z,57.46
2023-05-20T08:19:03.940Z,56.06
2023-05-20T08:20:31.630Z,56.24
2023-05-20T08:22:08.398Z,56.48
2023-05-20T08:23:56.826Z,57.36
2023-05-20T08:25:33.681Z,57.85
2023-05-20T08:27:16.274Z,59.23
2023-05-20T08:28:49.356Z,59.19
2023-05-20T08:30:26.113Z,58.78
2023-05-20T08:31:58.084Z,59.98
2023-05-20T08:33:43.522Z,60.04
2023-05-20T08:35:08.033Z,59.88
2023-05-20T08:36:34.813Z,61.62
2023-05-20T08:38:08.736Z,61.58
2023-05-20T08:39:49.396Z,60.67
2023-05-20T08:41:25.509Z,61.58
2023-05-20T08:42:59.325Z,62.56
2023-05-20T08:44:23.994Z,61.70
2023-05-20T08:46:09.388Z,59.25
2023-05-20T08:47:46.148Z,55.93
2023-05-20T08:49:31.652Z,56.25
2023-05-20T08:51:02.868Z,57.31
2023-05-20T08:52:38.713Z,58.16
2023-05-20T08:54:19.159Z,58.64
2023-05-20T08:55:42.725Z,59.02
2023-05-20T08:57:12.168Z,59.95
2023-05-20T08:59:02.082Z,60.10
2023-05-20T09:00:47.385Z,60.70
2023-05-20T09:02:23.245Z,61.45
2023-05-20T09:03:45.255Z,61.62
2023-05-20T09:05:21.237Z,62.48
2023-05-20T09:07:01.287Z,63.09
2023-05-20T09:08:27.630Z,60.70
2023-05-20T09:10:03.311Z,57.68
2023-05-20T09:11:25.237Z,55.28
2023-05-20T09:12:46.843Z,54.95
2023-05-20T09:17:25.486Z,57.43
2023-05-20T09:18:49.931Z,58.28
2023-05-20T09:20:32.817Z,59.25
2023-05-20T09:22:05.186Z,59.64
2023-05-20T09:23:30.727Z,60.17
2023-05-20T09:25:04.253Z,60.79
2023-05-20T09:26:40.502Z,61.54
2023-05-20T09:28:14.920Z,62.42
2023-05-20T09:30:00.414Z,63.70
2023-05-20T09:31:45.675Z,61.06
2023-05-20T09:33:20.794Z,57.21
2023-05-20T09:34:45.511Z,55.40
2023-05-20T09:36:10.651Z,55.48
2023-05-20T09:37:56.198Z,57.01
2023-05-20T09:39:32.390Z,57.90
2023-05-20T09:40:56.233Z,58.54
2023-05-20T09:42:18.184Z,59.27
2023-05-20T09:43:42.774Z,59.82
2023-05-20T09:45:16.215Z,59.69
2023-05-20T09:46:40.613Z,60.16
2023-05-20T09:48:05.021Z,60.68
2023-05-20T09:49:46.093Z,62.17
2023-05-20T09:51:08.282Z,62.63
2023-05-20T09:52:41.870Z,59.96
2023-05-20T09:54:03.942Z,57.13
2023-05-20T09:55:39.821Z,55.62
2023-05-20T09:57:12.155Z,55.56
2023-05-20T09:58:45.678Z,56.78
2023-05-20T10:00:22.265Z,56.47
2023-05-20T10:01:54.030Z,58.52
2023-05-20T10:03:30.477Z,57.80
2023-05-20T10:05:04.257Z,57.92
2023-05-20T10:06:38.210Z,58.38
2023-05-20T10:08:00.394Z,57.67
2023-05-20T10:09:31.932Z,58.29
2023-05-20T10:11:14.873Z,58.91
2023-05-20T10:12:36.336Z,58.85
2023-05-20T10:13:58.139Z,60.19
2023-05-20T10:15:43.239Z,60.23
2023-05-20T10:17:09.098Z,60.10
2023-05-20T10:18:31.447Z,59.54
2023-05-20T10:19:55.541Z,59.16
2023-05-20T10:21:24.771Z,58.96
2023-05-20T10:22:48.671Z,60.10
2023-05-20T10:24:22.251Z,60.06
2023-05-20T10:25:43.799Z,58.88
2023-05-20T10:27:06.432Z,59.23
2023-05-20T10:28:39.764Z,59.24
2023-05-20T10:30:12.986Z,60.23
2023-05-20T10:31:46.840Z,60.74
2023-05-20T10:33:20.921Z,60.61
2023-05-20T10:35:06.136Z,60.36
2023-05-20T10:36:41.439Z,59.72
2023-05-20T10:38:30.432Z,59.86
2023-05-20T10:39:59.960Z,59.31
2023-05-20T10:41:29.500Z,59.30
2023-05-20T10:43:01.061Z,59.18
2023-05-20T10:44:36.638Z,59.86
2023-05-20T10:46:34.928Z,59.77
2023-05-20T10:48:19.202Z,59.84
2023-05-20T10:49:41.216Z,60.05
2023-05-20T10:51:05.945Z,60.32
2023-05-20T10:52:59.835Z,61.72
2023-05-20T10:54:24.095Z,62.72
2023-05-20T10:55:55.799Z,62.59
2023-05-20T10:57:29.411Z,59.78
2023-05-20T10:58:50.755Z,57.08
2023-05-20T11:00:24.520Z,55.84
2023-05-20T11:01:53.592Z,55.51
2023-05-20T11:03:18.344Z,55.85
2023-05-20T11:05:04.210Z,56.63
2023-05-20T11:06:27.235Z,57.42
2023-05-20T11:08:00.445Z,57.81
2023-05-20T11:09:31.899Z,58.56
2023-05-20T11:11:13.342Z,58.88
2023-05-20T11:12:58.572Z,59.88
2023-05-20T11:14:35.122Z,60.06
2023-05-20T11:15:59.146Z,60.54
2023-05-20T11:17:21.347Z,60.71
2023-05-20T11:18:58.061Z,61.10
2023-05-20T11:20:20.270Z,61.41
2023-05-20T11:21:53.750Z,61.46
2023-05-20T11:23:23.721Z,61.23
2023-05-20T11:25:08.778Z,62.78
2023-05-20T11:26:45.500Z,63.30
2023-05-20T11:28:27.321Z,60.53
2023-05-20T11:29:56.205Z,57.13
2023-05-20T11:31:37.788Z,55.93
2023-05-20T11:33:23.197Z,55.28
2023-05-20T11:34:47.902Z,57.61
2023-05-20T11:36:27.811Z,58.91
2023-05-20T11:37:52.535Z,59.83
2023-05-20T11:39:28.879Z,59.11
2023-05-20T11:40:53.415Z,59.46
2023-05-20T11:42:38.668Z,58.57
2023-05-20T11:44:13.549Z,57.16
2023-05-20T11:45:47.159Z,57.52
2023-05-20T11:47:32.481Z,56.70
2023-05-20T11:49:17.994Z,56.69
2023-05-20T11:50:40.640Z,55.44
2023-05-20T11:52:25.654Z,56.20
2023-05-20T11:53:49.609Z,55.95
2023-05-20T11:55:11.896Z,55.66
2023-05-20T11:56:45.376Z,56.17
2023-05-20T11:58:07.674Z,56.09
2023-05-20T11:59:31.624Z,56.34
2023-05-20T12:01:22.275Z,56.54
2023-05-20T12:03:11.954Z,56.31
2023-05-20T12:04:45.574Z,56.63
2023-05-20T12:06:07.330Z,56.43
2023-05-20T12:07:34.208Z,56.53
2023-05-20T12:09:09.745Z,56.83
2023-05-20T12:10:34.294Z,57.36
2023-05-20T12:12:17.256Z,56.47
2023-05-20T12:13:39.393Z,55.67
2023-05-20T12:15:26.430Z,56.49
2023-05-20T12:16:59.884Z,56.15
2023-05-20T12:18:33.858Z,55.60
2023-05-20T12:19:56.015Z,54.88
2023-05-20T12:21:29.840Z,55.01
2023-05-20T12:22:51.482Z,56.60
2023-05-20T12:24:15.542Z,55.50
2023-05-20T12:25:37.426Z,55.84
2023-05-20T12:27:01.359Z,56.17
2023-05-20T12:28:25.707Z,54.94
2023-05-20T12:30:11.477Z,54.96
2023-05-20T12:31:35.052Z,54.20
2023-05-20T12:32:57.379Z,53.85
2023-05-20T12:34:20.395Z,53.32
2023-05-20T12:35:44.573Z,53.38
2023-05-20T12:37:13.638Z,53.54
2023-05-20T12:38:36.121Z,52.21
2023-05-20T12:40:16.845Z,52.92
2023-05-20T12:41:50.338Z,53.93
2023-05-20T12:43:12.366Z,53.34
2023-05-20T12:44:34.291Z,53.02
2023-05-20T12:46:09.985Z,52.24
2023-05-20T12:47:50.727Z,52.70
2023-05-20T12:49:24.657Z,52.43
2023-05-20T12:51:00.538Z,52.78
2023-05-20T12:52:41.657Z,52.51
2023-05-20T12:54:03.517Z,51.82
2023-05-20T12:55:27.522Z,52.00
2023-05-20T12:57:01.163Z,52.32
2023-05-20T12:58:34.683Z,52.77
2023-05-20T13:00:01.418Z,52.29
2023-05-20T13:01:25.740Z,51.09
2023-05-20T13:02:59.283Z,49.99
2023-05-20T13:04:32.737Z,50.28
2023-05-20T13:06:05.736Z,49.96
2023-05-20T13:07:29.891Z,50.78
2023-05-20T13:08:54.240Z,50.48
2023-05-20T13:10:27.796Z,50.60
2023-05-20T13:11:49.681Z,50.33
2023-05-20T13:13:28.809Z,50.33
2023-05-20T13:15:06.625Z,49.89
2023-05-20T13:16:39.966Z,49.39
2023-05-20T13:18:15.687Z,49.53
2023-05-20T13:19:49.400Z,49.37
2023-05-20T13:21:25.356Z,48.58
2023-05-20T13:22:46.926Z,48.21
2023-05-20T13:24:09.141Z,48.19
2023-05-20T13:25:42.872Z,48.49
2023-05-20T13:27:14.376Z,46.77
2023-05-20T13:28:36.941Z,45.90
2023-05-20T13:30:06.180Z,46.17
2023-05-20T13:31:40.050Z,45.51
2023-05-20T13:33:04.183Z,47.35
2023-05-20T13:34:28.845Z,46.63
2023-05-20T13:35:50.378Z,46.07
2023-05-20T13:37:14.404Z,46.52
2023-05-20T13:38:59.610Z,46.98
2023-05-20T13:40:36.435Z,47.34
2023-05-20T13:42:21.929Z,47.10
2023-05-20T13:44:02.771Z,46.90
2023-05-20T13:45:36.514Z,46.55
2023-05-20T13:47:00.573Z,46.41
2023-05-20T13:48:33.835Z,46.80
2023-05-20T13:50:07.452Z,46.90
2023-05-20T13:51:52.916Z,46.59
2023-05-20T13:53:28.696Z,46.36
2023-05-20T13:55:02.272Z,46.18
2023-05-20T13:56:36.079Z,46.22
2023-05-20T13:58:09.360Z,45.40
2023-05-20T13:59:53.956Z,46.22
2023-05-20T14:01:35.571Z,44.56
2023-05-20T14:03:10.394Z,43.78
2023-05-20T14:04:56.949Z,43.91
2023-05-20T14:06:32.926Z,43.15
2023-05-20T14:07:59.455Z,42.46
2023-05-20T14:09:28.713Z,41.58
2023-05-20T14:10:52.293Z,41.26
2023-05-20T14:12:37.477Z,41.31
2023-05-20T14:14:06.338Z,40.91
2023-05-20T14:15:33.331Z,41.26
2023-05-20T14:17:18.589Z,40.51
2023-05-20T14:18:59.509Z,40.85
2023-05-20T14:20:33.588Z,41.07
2023-05-20T14:22:18.847Z,41.65
2023-05-20T14:23:52.204Z,42.47
2023-05-20T14:25:16.609Z,42.17
2023-05-20T14:26:45.997Z,42.66
2023-05-20T14:28:07.771Z,43.29
2023-05-20T14:29:29.982Z,42.92
2023-05-20T14:31:05.517Z,42.81
2023-05-20T14:32:51.388Z,42.92
2023-05-20T14:34:25.113Z,41.96
2023-05-20T14:35:51.406Z,41.35
2023-05-20T14:37:27.911Z,40.93
2023-05-20T14:38:59.483Z,40.77
2023-05-20T14:40:33.293Z,40.54
2023-05-20T14:41:55.276Z,39.83
2023-05-20T14:43:40.616Z,39.04
2023-05-20T14:45:06.912Z,38.77
2023-05-20T14:46:40.571Z,38.15
2023-05-20T14:48:23.356Z,37.53
2023-05-20T14:50:04.093Z,38.07
2023-05-20T14:51:58.946Z,37.16
2023-05-20T14:53:32.500Z,36.69
2023-05-20T14:55:08.291Z,37.81
2023-05-20T14:56:41.897Z,36.99
2023-05-20T14:58:15.647Z,36.78
2023-05-20T14:59:39.677Z,36.41
2023-05-20T15:01:15.391Z,36.60
2023-05-20T15:02:37.919Z,37.36
2023-05-20T15:04:02.248Z,37.25
2023-05-20T15:05:47.257Z,37.31
2023-05-20T15:07:30.320Z,37.22
2023-05-20T15:08:52.131Z,37.10
2023-05-20T15:10:26.137Z,37.10
2023-05-20T15:11:55.465Z,37.07
2023-05-20T15:13:28.890Z,36.68
2023-05-20T15:15:22.248Z,36.38
2023-05-20T15:16:58.108Z,36.29
2023-05-20T15:18:32.004Z,36.44
2023-05-20T15:20:13.004Z,36.43
2023-05-20T15:21:58.459Z,36.02
2023-05-20T15:23:34.529Z,35.79
2023-05-20T15:25:09.827Z,35.88
2023-05-20T15:27:04.937Z,35.30
2023-05-20T15:28:38.234Z,34.93
2023-05-20T15:30:11.604Z,35.63
2023-05-20T15:31:52.821Z,35.47
2023-05-20T15:33:25.270Z,35.51
2023-05-20T15:35:02.579Z,35.26
2023-05-20T15:36:24.929Z,35.11
2023-05-20T15:37:46.675Z,35.33
2023-05-20T15:39:22.863Z,35.06
2023-05-20T15:40:59.192Z,34.96
2023-05-20T15:42:23.631Z,34.65
2023-05-20T15:43:56.813Z,34.78
2023-05-20T15:45:30.656Z,35.19
2023-05-20T15:46:52.134Z,34.94
2023-05-20T15:48:26.823Z,34.98
2023-05-20T15:50:04.284Z,35.25
2023-05-20T15:51:37.898Z,35.41
2023-05-20T15:53:00.006Z,35.85
2023-05-20T15:54:21.908Z,36.04
2023-05-20T15:55:51.479Z,36.30
2023-05-20T15:57:32.726Z,36.47
2023-05-20T15:59:14.889Z,36.61
2023-05-20T16:00:39.444Z,37.13
2023-05-20T16:02:26.853Z,37.69
2023-05-20T16:04:10.041Z,38.53
2023-05-20T16:05:32.209Z,38.78
2023-05-20T16:06:56.021Z,39.52
2023-05-20T16:08:25.988Z,40.73
2023-05-20T16:09:57.633Z,40.50
2023-05-20T16:11:22.814Z,40.57
2023-05-20T16:12:49.287Z,41.22
2023-05-20T16:14:23.157Z,42.20
2023-05-20T16:15:46.968Z,42.25
2023-05-20T16:17:21.717Z,42.49
2023-05-20T16:18:52.952Z,42.56
2023-05-20T16:20:38.412Z,42.94
2023-05-20T16:22:20.060Z,43.53
2023-05-20T16:23:49.152Z,44.06
2023-05-20T16:25:15.161Z,44.04
2023-05-20T16:26:44.319Z,44.21
2023-05-20T16:28:25.315Z,44.13
2023-05-20T16:30:10.397Z,44.18
2023-05-20T16:31:46.314Z,44.86
2023-05-20T16:33:21.888Z,45.43
2023-05-20T16:34:57.746Z,45.62
2023-05-20T16:36:33.271Z,46.22
2023-05-20T16:38:08.839Z,46.77
2023-05-20T16:39:38.288Z,47.18
2023-05-20T16:41:11.546Z,47.62
2023-05-20T16:42:58.578Z,48.02
2023-05-20T16:44:39.386Z,48.63
2023-05-20T16:46:14.529Z,48.90
2023-05-20T16:47:36.967Z,49.11
2023-05-20T16:48:58.813Z,49.22
2023-05-20T16:50:22.927Z,49.48
2023-05-20T16:51:56.381Z,49.73
2023-05-20T16:53:25.359Z,50.45
2023-05-20T16:55:15.003Z,50.86
2023-05-20T16:56:50.879Z,51.33
2023-05-20T16:58:33.903Z,51.58
2023-05-20T16:59:58.430Z,52.17
2023-05-20T17:01:44.091Z,52.12
2023-05-20T17:03:18.086Z,52.68
2023-05-20T17:04:39.501Z,52.70
2023-05-20T17:06:03.594Z,52.92
2023-05-20T17:07:48.735Z,52.81
2023-05-20T17:09:18.057Z,53.34
2023-05-20T17:10:54.366Z,53.75
2023-05-20T17:12:28.316Z,54.41
2023-05-20T17:14:22.021Z,54.83
2023-05-20T17:15:51.055Z,55.43
2023-05-20T17:17:31.855Z,55.88
2023-05-20T17:18:56.227Z,56.32
2023-05-20T17:20:29.573Z,56.62
2023-05-20T17:21:50.920Z,56.88
2023-05-20T17:23:14.691Z,56.97
2023-05-20T17:24:41.282Z,57.07
2023-05-20T17:26:25.317Z,57.18
2023-05-20T17:28:19.960Z,57.30
2023-05-20T17:30:01.209Z,57.55
2023-05-20T17:31:23.278Z,57.71
2023-05-20T17:33:08.997Z,57.66
2023-05-20T17:34:33.288Z,57.96
2023-05-20T17:36:02.377Z,58.08
2023-05-20T17:37:24.393Z,58.31
2023-05-20T17:39:18.451Z,58.63
2023-05-20T17:40:53.974Z,58.81
2023-05-20T17:42:28.015Z,59.28
2023-05-20T17:44:03.502Z,59.61
2023-05-20T17:45:48.641Z,59.92
2023-05-20T17:47:21.620Z,60.23
2023-05-20T17:48:55.065Z,60.41
2023-05-20T17:50:35.844Z,60.49
2023-05-20T17:52:13.034Z,60.86
2023-05-20T17:53:58.620Z,61.08
2023-05-20T17:55:39.686Z,61.21
2023-05-20T17:57:22.567Z,61.33
2023-05-20T17:58:46.879Z,61.59
2023-05-20T18:00:11.040Z,61.60
2023-05-20T18:02:00.440Z,61.64
2023-05-20T18:03:46.051Z,61.93
2023-05-20T18:05:19.792Z,61.90
2023-05-20T18:07:04.762Z,62.10
2023-05-20T18:08:28.923Z,62.26
2023-05-20T18:10:10.770Z,62.59
2023-05-20T18:11:47.152Z,62.59
2023-05-20T18:13:22.746Z,59.96
2023-05-20T18:14:51.593Z,56.60
2023-05-20T18:16:27.492Z,55.55
2023-05-20T18:17:49.167Z,56.10
2023-05-20T18:19:29.071Z,56.41
2023-05-20T18:21:13.680Z,57.32
2023-05-20T18:22:58.882Z,58.53
2023-05-20T18:24:34.984Z,58.88
2023-05-20T18:25:59.096Z,59.38
2023-05-20T18:27:21.163Z,59.93
2023-05-20T18:28:50.472Z,60.15
2023-05-20T18:30:17.822Z,60.68
2023-05-20T18:31:42.590Z,60.82
2023-05-20T18:33:04.967Z,61.08
2023-05-20T18:34:29.675Z,61.55
2023-05-20T18:35:54.572Z,61.87
2023-05-20T18:37:35.501Z,62.14
2023-05-20T18:38:59.191Z,62.32
2023-05-20T18:40:21.309Z,62.79
2023-05-20T18:41:50.628Z,63.17
2023-05-20T18:43:19.660Z,61.15
2023-05-20T18:44:43.709Z,58.22
2023-05-20T18:46:05.716Z,56.01
2023-05-20T18:47:50.913Z,56.07
2023-05-20T18:49:13.193Z,56.89
2023-05-20T18:50:45.225Z,57.81
2023-05-20T18:52:21.138Z,58.49
2023-05-20T18:53:43.081Z,59.05
2023-05-20T18:55:18.943Z,59.91
2023-05-20T18:57:00.214Z,60.42
2023-05-20T18:58:24.193Z,61.09
2023-05-20T18:59:47.814Z,61.40
2023-05-20T19:01:33.598Z,61.96
2023-05-20T19:02:58.712Z,62.22
2023-05-20T19:04:30.318Z,63.17
2023-05-20T19:05:52.191Z,62.65
2023-05-20T19:07:37.637Z,59.99
2023-05-20T19:09:19.274Z,56.98
2023-05-20T19:10:43.489Z,56.07
2023-05-20T19:12:24.594Z,56.75
2023-05-20T19:13:58.366Z,57.83
2023-05-20T19:15:32.349Z,58.75
2023-05-20T19:17:04.421Z,59.56
2023-05-20T19:18:29.203Z,60.41
2023-05-20T19:20:03.859Z,60.97
2023-05-20T19:21:44.582Z,61.70
2023-05-20T19:23:10.947Z,62.27
2023-05-20T19:24:35.499Z,62.81
2023-05-20T19:26:02.234Z,63.42
2023-05-20T19:27:36.237Z,61.33
2023-05-20T19:29:16.529Z,58.46
2023-05-20T19:30:41.649Z,56.23
2023-05-20T19:32:14.877Z,56.28
2023-05-20T19:33:49.344Z,57.37
2023-05-20T19:35:23.265Z,58.52
2023-05-20T19:36:46.725Z,59.45
2023-05-20T19:38:23.653Z,60.34
2023-05-20T19:39:52.840Z,61.07
2023-05-20T19:41:14.977Z,61.67
2023-05-20T19:42:36.936Z,62.29
2023-05-20T19:44:12.811Z,63.46
2023-05-20T19:45:36.697Z,62.63
2023-05-20T19:47:10.689Z,60.27
2023-05-20T19:48:46.106Z,57.02
2023-05-20T19:50:10.374Z,56.36
2023-05-20T19:51:53.994Z,56.93
2023-05-20T19:53:29.218Z,58.45
2023-05-20T19:55:05.593Z,59.48
2023-05-20T19:56:30.087Z,60.39
2023-05-20T19:57:53.520Z,61.25
2023-05-20T19:59:38.827Z,62.06
2023-05-20T20:01:12.633Z,62.96
2023-05-20T20:02:59.214Z,63.01
2023-05-20T20:04:21.310Z,60.58
2023-05-20T20:05:57.048Z,57.65
2023-05-20T20:07:19.283Z,56.29
2023-05-20T20:09:12.227Z,56.88
2023-05-20T20:10:46.757Z,58.14
2023-05-20T20:12:20.343Z,59.50
2023-05-20T20:13:51.790Z,60.60
2023-05-20T20:15:32.968Z,61.62
2023-05-20T20:17:26.351Z,62.63
2023-05-20T20:19:07.364Z,63.31
2023-05-20T20:20:41.272Z,61.25
2023-05-20T20:22:14.643Z,58.21
2023-05-20T20:23:50.446Z,56.49
2023-05-20T20:25:27.382Z,57.02